createdAt,value
2019-05-17T00:01:37.722Z,98.80
2019-05-17T00:04:09.109Z,98.40
2019-05-17T00:06:38.791Z,98.40
2019-05-17T00:09:09.807Z,98.40
2019-05-17T00:11:39.447Z,99.20
2019-05-17T00:14:09.054Z,99.40
2019-05-17T00:16:38.759Z,99.30
2019-05-17T00:19:08.118Z,99.50
2019-05-17T00:21:37.460Z,98.90
2019-05-17T00:24:06.920Z,99.80
2019-05-17T00:26:39.313Z,99.20
2019-05-17T00:29:07.861Z,98.80
2019-05-17T00:31:37.636Z,99.50
2019-05-17T00:34:07.476Z,99.90
2019-05-17T00:36:37.567Z,99.50
2019-05-17T00:39:07.687Z,99.00
2019-05-17T00:41:37.654Z,99.50
2019-05-17T00:44:07.102Z,99.10
2019-05-17T00:46:37.360Z,98.50
2019-05-17T00:49:07.161Z,98.80
2019-05-17T00:51:37.060Z,99.50
2019-05-17T00:54:11.240Z,98.90
2019-05-17T00:56:40.782Z,98.60
2019-05-17T00:59:10.264Z,98.50
2019-05-17T01:01:39.765Z,98.30
2019-05-17T01:04:09.451Z,99.30
2019-05-17T01:06:39.306Z,99.50
2019-05-17T01:09:09.249Z,99.60
2019-05-17T01:11:39.164Z,99.40
2019-05-17T01:14:08.645Z,98.90
2019-05-17T01:16:38.258Z,99.10
2019-05-17T01:19:08.043Z,99.00
2019-05-17T01:21:37.564Z,99.00
2019-05-17T01:24:07.253Z,99.00
2019-05-17T01:26:37.409Z,98.50
2019-05-17T01:29:07.054Z,99.00
2019-05-17T01:31:37.303Z,98.80
2019-05-17T01:34:07.649Z,99.30
2019-05-17T01:36:37.255Z,99.00
2019-05-17T01:39:17.036Z,98.80
2019-05-17T01:41:39.616Z,99.10
2019-05-17T01:44:09.109Z,99.80
2019-05-17T01:46:38.615Z,99.90
2019-05-17T01:49:08.196Z,99.90
2019-05-17T01:51:37.644Z,99.20
2019-05-17T01:54:07.091Z,99.90
2019-05-17T01:56:37.075Z,99.00
2019-05-17T01:59:06.988Z,98.80
2019-05-17T02:01:37.259Z,98.80
2019-05-17T02:04:06.733Z,99.90
2019-05-17T02:06:37.546Z,99.90
2019-05-17T02:09:07.413Z,99.90
2019-05-17T02:11:37.605Z,99.60
2019-05-17T02:14:07.487Z,98.50
2019-05-17T02:16:37.665Z,98.80
2019-05-17T02:19:07.630Z,98.80
2019-05-17T02:21:39.140Z,99.10
2019-05-17T02:24:08.798Z,99.20
2019-05-17T02:26:40.289Z,98.90
2019-05-17T02:29:14.824Z,98.40
2019-05-17T02:31:44.472Z,98.50
2019-05-17T02:34:15.470Z,98.90
2019-05-17T02:36:45.661Z,98.60
2019-05-17T02:39:16.006Z,99.30
2019-05-17T02:41:44.404Z,99.80
2019-05-17T02:44:15.356Z,99.90
2019-05-17T02:46:46.656Z,99.80
2019-05-17T02:49:16.818Z,99.00
2019-05-17T02:51:52.557Z,99.10
2019-05-17T02:54:23.545Z,98.90
2019-05-17T02:56:53.865Z,98.80
2019-05-17T02:59:24.959Z,98.90
2019-05-17T03:01:55.861Z,98.40
2019-05-17T03:04:25.605Z,99.50
2019-05-17T03:06:55.488Z,99.10
2019-05-17T03:09:25.490Z,99.40
2019-05-17T03:12:03.321Z,99.40
2019-05-17T03:14:32.917Z,99.10
2019-05-17T03:17:22.720Z,99.80
2019-05-17T03:19:57.855Z,99.90
2019-05-17T03:22:27.402Z,98.80
2019-05-17T03:24:56.819Z,98.90
2019-05-17T03:27:26.248Z,99.20
2019-05-17T03:29:55.695Z,98.90
2019-05-17T03:32:27.212Z,99.00
2019-05-17T03:34:57.232Z,99.40
2019-05-17T03:37:36.391Z,99.40
2019-05-17T03:40:02.709Z,99.20
2019-05-17T03:42:33.142Z,99.30
2019-05-17T03:45:03.213Z,99.70
2019-05-17T03:47:33.604Z,99.50
2019-05-17T03:50:03.541Z,99.70
2019-05-17T03:52:33.292Z,99.90
2019-05-17T03:55:04.223Z,99.90
2019-05-17T03:57:36.630Z,99.90
2019-05-17T04:00:07.036Z,99.90
2019-05-17T04:02:36.380Z,99.90
2019-05-17T04:05:06.272Z,99.90
2019-05-17T04:07:35.833Z,99.70
2019-05-17T04:10:05.818Z,99.90
2019-05-17T04:12:35.356Z,99.70
2019-05-17T04:15:05.141Z,99.20
2019-05-17T04:17:34.570Z,99.30
2019-05-17T04:20:07.659Z,99.70
2019-05-17T04:22:37.078Z,99.50
2019-05-17T04:25:06.682Z,99.60
2019-05-17T04:27:36.261Z,99.70
2019-05-17T04:30:08.665Z,99.40
2019-05-17T04:32:37.813Z,99.30
2019-05-17T04:35:07.439Z,99.90
2019-05-17T04:37:38.610Z,99.50
2019-05-17T04:40:13.630Z,99.40
2019-05-17T04:42:43.866Z,99.50
2019-05-17T04:45:12.673Z,99.50
2019-05-17T04:47:44.409Z,99.30
2019-05-17T04:50:14.278Z,99.30
2019-05-17T04:52:44.216Z,99.30
2019-05-17T04:55:14.148Z,99.90
2019-05-17T04:57:44.407Z,99.70
2019-05-17T05:00:14.805Z,99.80
2019-05-17T05:02:44.463Z,99.80
2019-05-17T05:05:14.566Z,99.40
2019-05-17T05:07:44.105Z,99.40
2019-05-17T05:10:14.382Z,99.90
2019-05-17T05:12:44.372Z,99.90
2019-05-17T05:15:14.189Z,99.90
2019-05-17T05:17:43.675Z,99.70
2019-05-17T05:20:13.687Z,99.90
2019-05-17T05:22:42.879Z,99.60
2019-05-17T05:25:12.918Z,99.40
2019-05-17T05:27:42.988Z,99.90
2019-05-17T05:30:12.353Z,99.40
2019-05-17T05:32:42.827Z,99.70
2019-05-17T05:35:12.773Z,99.70
2019-05-17T05:37:48.817Z,99.40
2019-05-17T05:40:18.240Z,99.40
2019-05-17T05:42:47.816Z,99.90
2019-05-17T05:45:17.460Z,99.30
2019-05-17T05:47:46.860Z,99.10
2019-05-17T05:50:17.710Z,99.10
2019-05-17T05:52:49.115Z,99.40
2019-05-17T05:55:18.472Z,99.90
2019-05-17T05:57:47.765Z,99.90
2019-05-17T06:00:18.835Z,99.60
2019-05-17T06:02:48.296Z,99.50
2019-05-17T06:05:18.114Z,99.90
2019-05-17T06:07:52.095Z,99.50
2019-05-17T06:10:21.857Z,99.20
2019-05-17T06:12:51.775Z,99.20
2019-05-17T06:15:21.933Z,99.30
2019-05-17T06:17:52.027Z,99.10
2019-05-17T06:20:22.410Z,99.00
2019-05-17T06:22:51.974Z,98.90
2019-05-17T06:25:23.364Z,98.90
2019-05-17T06:27:52.463Z,98.60
2019-05-17T06:30:22.126Z,98.40
2019-05-17T06:32:51.852Z,98.60
2019-05-17T06:35:21.784Z,98.40
2019-05-17T06:37:53.540Z,98.70
2019-05-17T06:40:23.133Z,98.30
2019-05-17T06:42:52.626Z,98.90
2019-05-17T06:45:22.348Z,99.50
2019-05-17T06:47:52.159Z,99.50
2019-05-17T06:50:23.455Z,99.10
2019-05-17T06:52:53.251Z,99.00
2019-05-17T06:55:24.206Z,99.10
2019-05-17T06:57:52.882Z,99.10
2019-05-17T07:00:23.913Z,98.70
2019-05-17T07:02:53.225Z,98.90
2019-05-17T07:05:26.439Z,99.40
2019-05-17T07:07:55.764Z,99.40
2019-05-17T07:10:25.102Z,99.10
2019-05-17T07:12:58.756Z,99.30
2019-05-17T07:15:25.720Z,99.30
2019-05-17T07:17:54.991Z,98.80
2019-05-17T07:20:24.255Z,98.30
2019-05-17T07:22:53.614Z,98.00
2019-05-17T07:25:23.028Z,97.70
2019-05-17T07:27:52.395Z,98.20
2019-05-17T07:30:23.402Z,98.50
2019-05-17T07:32:53.005Z,98.70
2019-05-17T07:35:22.483Z,98.20
2019-05-17T07:37:52.657Z,97.80
2019-05-17T07:40:22.476Z,97.40
2019-05-17T07:42:51.925Z,98.30
2019-05-17T07:45:21.357Z,98.20
2019-05-17T07:47:50.675Z,98.00
2019-05-17T07:50:20.207Z,97.60
2019-05-17T07:52:50.012Z,98.30
2019-05-17T07:55:22.889Z,97.70
2019-05-17T07:57:50.314Z,97.90
2019-05-17T08:00:20.209Z,97.50
2019-05-17T08:02:50.490Z,96.50
2019-05-17T08:05:21.356Z,96.40
2019-05-17T08:07:51.047Z,96.60
2019-05-17T08:10:40.944Z,96.80
2019-05-17T08:13:25.212Z,96.80
2019-05-17T08:15:41.384Z,97.10
2019-05-17T08:18:11.240Z,96.80
2019-05-17T08:20:40.681Z,96.50
2019-05-17T08:23:10.841Z,96.90
2019-05-17T08:25:52.038Z,96.90
2019-05-17T08:28:11.131Z,96.70
2019-05-17T08:30:41.295Z,96.30
2019-05-17T08:33:11.323Z,95.90
2019-05-17T08:35:41.024Z,96.00
2019-05-17T08:38:10.722Z,94.60
2019-05-17T08:40:41.604Z,94.00
2019-05-17T08:43:11.031Z,93.70
2019-05-17T08:45:40.962Z,94.50
2019-05-17T08:48:09.710Z,93.60
2019-05-17T08:50:40.247Z,93.50
2019-05-17T08:53:12.431Z,94.40
2019-05-17T08:55:44.164Z,93.50
2019-05-17T11:15:11.522Z,89.50
2019-05-17T11:17:39.884Z,87.80
2019-05-17T11:20:10.008Z,90.20
2019-05-17T11:22:39.272Z,87.20
2019-05-17T11:25:09.785Z,89.10
2019-05-17T11:41:51.511Z,84.50
2019-05-17T11:44:20.761Z,84.70
2019-05-17T11:46:50.739Z,87.60
2019-05-17T11:49:20.413Z,86.20
2019-05-17T11:51:50.003Z,86.80
2019-05-17T11:54:19.761Z,87.60
2019-05-17T11:56:49.399Z,84.90
2019-05-17T11:59:18.948Z,83.10
2019-05-17T12:01:48.649Z,85.90
2019-05-17T12:04:18.397Z,89.30
2019-05-17T12:06:47.749Z,86.40
2019-05-17T12:09:20.168Z,89.50
2019-05-17T12:11:49.808Z,86.30
2019-05-17T12:14:19.330Z,88.50
2019-05-17T12:16:48.973Z,86.00
2019-05-17T12:19:18.494Z,82.80
2019-05-17T12:21:48.373Z,82.40
2019-05-17T12:24:18.129Z,87.50
2019-05-17T12:26:48.001Z,81.80
2019-05-17T12:29:17.577Z,82.90
2019-05-17T12:31:50.286Z,84.40
2019-05-17T12:34:20.012Z,84.60
2019-05-17T12:36:50.252Z,82.70
2019-05-17T12:39:22.591Z,83.10
2019-05-17T12:41:52.321Z,83.50
2019-05-17T12:44:24.102Z,85.50
2019-05-17T12:46:54.114Z,83.80
2019-05-17T12:49:22.503Z,86.00
2019-05-17T12:51:52.297Z,87.50
2019-05-17T12:54:21.926Z,84.50
2019-05-17T12:56:51.698Z,84.70
2019-05-17T12:59:21.757Z,86.60
2019-05-17T13:01:50.414Z,85.40
2019-05-17T13:04:20.314Z,86.00
2019-05-17T13:06:49.944Z,86.00
2019-05-17T13:09:19.634Z,84.60
2019-05-17T13:11:49.215Z,84.50
2019-05-17T13:14:18.892Z,86.50
2019-05-17T13:16:48.636Z,86.30
2019-05-17T13:19:18.563Z,86.30
2019-05-17T13:21:47.361Z,84.60
2019-05-17T13:24:16.959Z,83.50
2019-05-17T13:26:46.535Z,85.80
2019-05-17T13:29:16.039Z,83.60
2019-05-17T13:31:45.704Z,81.20
2019-05-17T13:34:15.312Z,84.50
2019-05-17T13:36:46.945Z,85.70
2019-05-17T13:39:16.574Z,85.60
2019-05-17T13:41:46.132Z,87.10
2019-05-17T13:44:15.947Z,85.40
2019-05-17T13:46:48.160Z,84.50
2019-05-17T13:49:18.469Z,84.40
2019-05-17T13:51:48.244Z,84.70
2019-05-17T13:54:18.426Z,85.70
2019-05-17T13:56:49.842Z,83.70
2019-05-17T13:59:19.385Z,83.00
2019-05-17T14:01:49.291Z,86.90
2019-05-17T14:04:18.982Z,84.90
2019-05-17T14:06:48.483Z,86.90
2019-05-17T14:09:18.250Z,86.20
2019-05-17T14:11:48.128Z,85.50
2019-05-17T14:14:20.352Z,83.80
2019-05-17T14:16:50.050Z,81.40
2019-05-17T14:19:19.967Z,80.80
2019-05-17T14:21:49.569Z,79.70
2019-05-17T14:24:19.523Z,80.10
2019-05-17T14:26:48.111Z,77.20
2019-05-17T14:29:17.696Z,78.60
2019-05-17T14:31:47.379Z,77.70
2019-05-17T14:34:17.087Z,76.80
2019-05-17T14:36:49.429Z,76.30
2019-05-17T14:39:19.171Z,74.90
2019-05-17T14:41:48.710Z,74.90
2019-05-17T14:44:18.264Z,75.60
2019-05-17T14:47:00.757Z,75.00
2019-05-17T14:49:33.947Z,76.30
2019-05-17T14:52:19.622Z,75.50
2019-05-17T14:54:50.784Z,74.50
2019-05-17T14:57:20.367Z,74.90
2019-05-17T14:59:50.503Z,77.60
2019-05-17T15:02:20.231Z,75.30
2019-05-17T15:04:52.786Z,77.20
2019-05-17T15:07:22.661Z,78.30
2019-05-17T15:09:53.196Z,76.60
2019-05-17T15:12:28.796Z,78.10
2019-05-17T15:14:59.208Z,77.20
2019-05-17T15:17:29.123Z,75.80
2019-05-17T15:19:59.076Z,76.00
2019-05-17T15:22:27.908Z,73.90
2019-05-17T15:24:57.926Z,75.30
2019-05-17T15:27:28.044Z,73.30
2019-05-17T15:29:57.993Z,75.40
2019-05-17T15:32:26.763Z,74.60
2019-05-17T15:34:56.683Z,74.80
2019-05-17T15:37:25.503Z,70.20
2019-05-17T15:39:56.415Z,76.70
2019-05-17T15:42:26.093Z,78.20
2019-05-17T15:44:55.326Z,79.00
2019-05-17T15:47:24.924Z,78.30
2019-05-17T15:49:54.375Z,75.40
2019-05-17T15:52:23.904Z,77.20
2019-05-17T15:54:53.835Z,78.10
2019-05-17T15:57:23.403Z,75.10
2019-05-17T15:59:52.901Z,74.00
2019-05-17T16:02:22.683Z,75.40
2019-05-17T16:04:52.621Z,73.60
2019-05-17T16:07:21.159Z,75.80
2019-05-17T16:09:51.062Z,74.80
2019-05-17T16:12:19.742Z,73.80
2019-05-17T16:14:49.557Z,70.80
2019-05-17T16:17:19.399Z,73.40
2019-05-17T16:19:48.061Z,78.30
2019-05-17T16:22:17.657Z,78.60
2019-05-17T16:24:47.277Z,79.50
2019-05-17T16:27:17.034Z,80.80
2019-05-17T16:29:46.572Z,78.40
2019-05-17T16:32:16.186Z,78.70
2019-05-17T16:34:45.877Z,78.00
2019-05-17T16:37:15.468Z,78.50
2019-05-17T16:39:45.163Z,80.30
2019-05-17T16:42:14.883Z,82.10
2019-05-17T16:44:46.591Z,81.00
2019-05-17T16:47:20.105Z,82.30
2019-05-17T16:49:49.944Z,79.00
2019-05-17T16:52:19.624Z,81.60
2019-05-17T16:54:49.375Z,78.10
2019-05-17T16:57:19.134Z,78.80
2019-05-17T16:59:49.225Z,82.10
2019-05-17T17:02:23.123Z,83.10
2019-05-17T17:05:01.933Z,82.60
2019-05-17T17:07:51.969Z,82.20
2019-05-17T17:10:29.833Z,82.90
2019-05-17T17:13:33.115Z,83.20
2019-05-17T17:16:15.517Z,83.70
2019-05-17T17:18:51.811Z,83.70
2019-05-17T17:21:53.636Z,85.20
2019-05-17T17:24:25.738Z,84.60
2019-05-17T17:27:08.605Z,80.30
2019-05-17T17:29:41.243Z,84.10
2019-05-17T17:32:21.465Z,86.00
2019-05-17T17:35:17.757Z,82.80
2019-05-17T17:38:14.905Z,87.70
2019-05-17T17:41:53.445Z,84.40
2019-05-17T17:44:25.502Z,87.40
2019-05-17T17:47:52.383Z,87.10
2019-05-17T17:50:30.007Z,87.60
2019-05-17T17:53:03.006Z,87.40
2019-05-17T17:55:36.938Z,89.80
2019-05-17T17:58:07.867Z,90.70
2019-05-17T18:00:40.526Z,89.80
2019-05-17T18:03:20.649Z,89.30
2019-05-17T18:06:21.896Z,89.00
2019-05-17T18:08:54.360Z,89.50
2019-05-17T18:11:47.566Z,86.30
2019-05-17T18:14:19.632Z,83.70
2019-05-17T18:16:49.389Z,87.60
2019-05-17T18:19:19.664Z,88.10
2019-05-17T18:21:49.324Z,85.30
2019-05-17T18:24:19.004Z,88.70
2019-05-17T18:26:57.905Z,89.30
2019-05-17T18:29:32.388Z,86.40
2019-05-17T18:32:01.978Z,89.80
2019-05-17T18:34:31.640Z,87.50
2019-05-17T18:37:02.751Z,88.80
2019-05-17T18:39:34.310Z,87.50
2019-05-17T18:42:05.424Z,90.10
2019-05-17T18:44:35.024Z,87.30
2019-05-17T18:47:04.498Z,88.20
2019-05-17T18:49:34.107Z,91.00
2019-05-17T18:52:03.958Z,90.50
2019-05-17T18:54:33.510Z,90.90
2019-05-17T18:57:03.085Z,89.20
2019-05-17T18:59:33.969Z,90.10
2019-05-17T19:02:20.007Z,90.90
2019-05-17T19:04:50.745Z,90.50
2019-05-17T19:07:24.586Z,90.70
2019-05-17T19:09:54.034Z,91.90
2019-05-17T19:12:26.623Z,91.70
2019-05-17T19:14:56.345Z,90.70
2019-05-17T19:17:26.924Z,91.90
2019-05-17T19:20:08.072Z,91.20
2019-05-17T19:23:04.591Z,92.70
2019-05-17T19:26:00.265Z,91.70
2019-05-17T19:28:35.657Z,93.00
2019-05-17T19:31:14.529Z,93.20
2019-05-17T19:33:50.225Z,92.10
2019-05-17T19:36:21.454Z,92.50
2019-05-17T19:39:11.980Z,92.50
2019-05-17T19:41:41.973Z,91.30
2019-05-17T19:44:11.742Z,93.60
2019-05-17T19:46:41.418Z,93.00
2019-05-17T19:49:11.604Z,92.50
2019-05-17T19:51:41.560Z,91.40
2019-05-17T19:54:11.976Z,93.50
2019-05-17T19:56:44.068Z,93.60
2019-05-17T19:59:13.277Z,94.20
2019-05-17T20:01:42.715Z,92.10
2019-05-17T20:04:12.189Z,92.00
2019-05-17T20:06:41.583Z,92.30
2019-05-17T20:09:10.966Z,94.20
2019-05-17T20:11:40.401Z,94.00
2019-05-17T20:14:09.631Z,93.80
2019-05-17T20:16:38.941Z,93.80
2019-05-17T20:19:08.306Z,93.30
2019-05-17T20:21:37.712Z,93.20
2019-05-17T20:24:06.902Z,93.50
2019-05-17T20:26:36.254Z,93.70
2019-05-17T20:29:05.608Z,93.60
2019-05-17T20:31:34.995Z,94.40
2019-05-17T20:34:04.330Z,94.80
2019-05-17T20:36:36.467Z,93.70
2019-05-17T20:39:07.674Z,93.80
2019-05-17T20:41:37.005Z,94.60
2019-05-17T20:44:07.120Z,94.70
2019-05-17T20:46:38.333Z,94.50
2019-05-17T20:49:07.797Z,94.50
2019-05-17T20:51:37.538Z,94.00
2019-05-17T20:54:07.251Z,93.10
2019-05-17T20:56:36.616Z,93.90
2019-05-17T20:59:06.329Z,92.60
2019-05-17T21:01:35.909Z,95.00
2019-05-17T21:04:05.282Z,93.60
2019-05-17T21:06:34.790Z,94.50
2019-05-17T21:09:05.153Z,93.50
2019-05-17T21:11:39.377Z,94.30
2019-05-17T21:14:08.818Z,94.70
2019-05-17T21:16:38.309Z,94.00
2019-05-17T21:19:07.649Z,94.50
2019-05-17T21:21:37.034Z,95.00
2019-05-17T21:24:06.475Z,93.40
2019-05-17T21:26:35.786Z,92.60
2019-05-17T21:29:05.218Z,94.80
2019-05-17T21:31:35.115Z,94.90
2019-05-17T21:34:04.448Z,96.40
2019-05-17T21:36:33.941Z,95.00
2019-05-17T21:39:04.143Z,95.80
2019-05-17T21:41:33.526Z,94.40
2019-05-17T21:44:02.906Z,94.60
2019-05-17T21:46:32.600Z,94.10
2019-05-17T21:49:02.522Z,94.40
2019-05-17T21:51:32.629Z,94.50
2019-05-17T21:54:01.082Z,94.80
2019-05-17T21:56:30.627Z,93.90
2019-05-17T21:58:59.971Z,95.10
2019-05-17T22:01:32.122Z,94.40
2019-05-17T22:04:01.848Z,93.80
2019-05-17T22:06:31.794Z,94.00
2019-05-17T22:09:01.814Z,94.10
2019-05-17T22:11:33.681Z,94.20
2019-05-17T22:14:03.050Z,93.80
2019-05-17T22:16:32.545Z,94.60
2019-05-17T22:19:02.035Z,94.50
2019-05-17T22:21:31.869Z,94.50
2019-05-17T22:24:02.790Z,94.10
2019-05-17T22:26:32.545Z,95.10
2019-05-17T22:29:02.659Z,94.40
2019-05-17T22:31:30.842Z,94.20
2019-05-17T22:34:01.230Z,95.50
2019-05-17T22:36:30.872Z,94.90
2019-05-17T22:39:26.339Z,94.60
2019-05-17T22:41:55.843Z,95.20
2019-05-17T22:44:25.229Z,95.50
2019-05-17T22:46:54.654Z,95.10
2019-05-17T22:49:23.783Z,96.50
2019-05-17T22:51:53.022Z,95.50
2019-05-17T22:54:22.222Z,94.90
2019-05-17T22:56:51.874Z,94.90
2019-05-17T22:59:21.486Z,95.40
2019-05-17T23:01:51.492Z,95.40
2019-05-17T23:04:21.291Z,94.20
2019-05-17T23:06:50.816Z,94.80
2019-05-17T23:09:21.007Z,95.70
2019-05-17T23:11:49.863Z,95.10
2019-05-17T23:14:20.935Z,95.00
2019-05-17T23:16:52.231Z,95.40
2019-05-17T23:19:22.029Z,95.20
2019-05-17T23:21:51.977Z,95.60
2019-05-17T23:24:21.455Z,96.20
2019-05-17T23:26:50.850Z,95.30
2019-05-17T23:29:20.285Z,95.40
2019-05-17T23:31:49.672Z,96.30
2019-05-17T23:34:19.228Z,95.60
2019-05-17T23:36:49.311Z,94.80
2019-05-17T23:39:17.882Z,95.60
2019-05-17T23:41:47.531Z,95.60
2019-05-17T23:44:17.033Z,96.20
2019-05-17T23:46:46.745Z,95.10
2019-05-17T23:49:16.414Z,95.80
2019-05-17T23:51:45.997Z,96.00
2019-05-17T23:54:15.424Z,96.60
2019-05-17T23:56:45.013Z,95.90
2019-05-17T23:59:16.869Z,96.00
